Nearby METAR Reports

 

KDPA - Chicago/Dupage, Illinois, USA
Distance from station: NW 11mi, 18km
Updated: Thu, 23-Sep-2021 3:52am CDT
Clear
Clear
 Wind from NW
Wind: NW 13 mph , 20 km/h
Temperature: 54°F , 12°C
Dew Point: 41°F , 5°C
Humidity: 63%
Barometer: 29.99 inHg , 1015.6 hPa
Clouds: Clear
Visibility: 10 miles , 16 km
2021/09/23 08:52 KDPA 230852Z 32011KT 10SM CLR 12/05 A2999 RMK AO2 SLP155 T01220050 56014
KLOT - Romeoville/Chi, Illinois, USA
Distance from station: S 13mi, 21km
Updated: Thu, 23-Sep-2021 4:35am CDT
Clear
Clear
 Wind from NW
Wind: NW 9 mph , 15 km/h
Temperature: 54°F , 12°C
Dew Point: 45°F , 7°C
Humidity: 72%
Barometer: 29.99 inHg , 1015.6 hPa
Clouds: Clear
Visibility: 10 miles , 16 km
2021/09/23 09:35 KLOT 230935Z AUTO 32008KT 10SM CLR 12/07 A2999 RMK AO2 T01170068
 
KORD - Chicago O'Hare, Illinois, USA
Distance from station: NE 17mi, 27km
Updated: Thu, 23-Sep-2021 3:51am CDT
Mostly cloudy
Mostly cloudy
 Wind from NW
Wind: NW 14 mph , 22 km/h
Temperature: 54°F , 12°C
Dew Point: 43°F , 6°C
Humidity: 67%
Barometer: 29.97 inHg , 1014.9 hPa
Clouds: Mostly cloudy
Visibility: 10 miles , 16 km
Cloud details: Mostly cloudy 16000 ft
Mostly cloudy 25000 ft
2021/09/23 08:51 KORD 230851Z 32012KT 10SM BKN160 BKN250 12/06 A2997 RMK AO2 SLP149 T01220061 56014
KARR - Chicago/Aurora, Illinois, USA
Distance from station: W 19mi, 30km
Updated: Thu, 23-Sep-2021 3:52am CDT
Clear
Clear
 Wind from NW
Wind: NW 8 mph , 13 km/h
Temperature: 50°F , 10°C
Wind Chill: 47°F , 8°C
Dew Point: 43°F , 6°C
Humidity: 76%
Barometer: 30.01 inHg , 1016.3 hPa
Clouds: Clear
Visibility: 10 miles , 16 km
2021/09/23 08:52 KARR 230852Z 31007KT 10SM CLR 10/06 A3001 RMK AO2 SLP162 T01000056 56012
 
KJOT - Joliet, Illinois, USA
Distance from station: S 19mi, 31km
Updated: Thu, 23-Sep-2021 4:35am CDT
Clear
Clear
 Wind from calm
Wind: Calm
Temperature: 54°F , 12°C
Dew Point: 45°F , 7°C
Humidity: 72%
Barometer: 29.99 inHg , 1015.6 hPa
Clouds: Clear
Visibility: 10 miles , 16 km
2021/09/23 09:35 KJOT 230935Z AUTO 00000KT 10SM CLR 12/07 A2999 RMK AO2 T01200071
KMDW - Chicago, Illinois, USA
Distance from station: E 19mi, 31km
Updated: Thu, 23-Sep-2021 3:53am CDT
Mostly cloudy
Mostly cloudy
 Wind from NW
Wind: NW 13 mph , 20 km/h
Temperature: 55°F , 13°C
Dew Point: 41°F , 5°C
Humidity: 59%
Barometer: 29.96 inHg , 1014.6 hPa
Clouds: Mostly cloudy
Visibility: 10 miles , 16 km
Cloud details: Mostly cloudy 16000 ft
Mostly cloudy 22000 ft
2021/09/23 08:53 KMDW 230853Z 32011KT 10SM BKN160 BKN220 13/05 A2996 RMK AO2 SLP145 T01330050 56014
 
KPWK - Palwaukee, Illinois, USA
Distance from station: NNE 25mi, 41km
Updated: Thu, 23-Sep-2021 3:52am CDT
Clear
Clear
 Wind from NNW
Wind: NNW 10 mph , 17 km/h
Temperature: 55°F , 13°C
Dew Point: 43°F , 6°C
Humidity: 63%
Barometer: 29.99 inHg , 1015.6 hPa
Clouds: Clear
Visibility: 10 miles , 16 km
2021/09/23 08:52 KPWK 230852Z AUTO 33009KT 10SM CLR 13/06 A2999 RMK AO2 SLP154 T01280061 56014
KC09 - Morris-Washburn, Illinois, USA
Distance from station: SSW 29mi, 47km
Updated: Thu, 23-Sep-2021 4:35am CDT
Clear
Clear
 Wind from NNW
Wind: NNW 6 mph , 9 km/h
Temperature: 50°F , 10°C
Wind Chill: 48°F , 9°C
Dew Point: 45°F , 7°C
Humidity: 82%
Barometer: 30.00 inHg , 1015.9 hPa
Clouds: Clear
Visibility: 10 miles , 16 km
2021/09/23 09:35 KC09 230935Z AUTO 33005KT 10SM CLR 10/07 A3000 RMK AO2 T01020070
 
KDKB - De Kalb, Illinois, USA
Distance from station: WNW 31mi, 50km
Updated: Thu, 23-Sep-2021 4:35am CDT
Clear
Clear
 Wind from NW
Wind: NW 7 mph , 11 km/h
Barometer: 30.02 inHg , 1016.6 hPa
Clouds: Clear
Visibility: 10 miles , 16 km
2021/09/23 09:35 KDKB 230935Z 32006KT 10SM CLR A3002 RMK AO2
KIGQ - Chicago/Lansing, Illinois, USA
Distance from station: ESE 35mi, 57km
Updated: Thu, 23-Sep-2021 4:35am CDT
Clear
Clear
 Wind from NW
Wind: NW 12 mph , 19 km/h, Gust: 16 mph , 26 km/h
Temperature: 54°F , 12°C
Dew Point: 45°F , 7°C
Humidity: 72%
Barometer: 29.95 inHg , 1014.2 hPa
Clouds: Clear
Visibility: 10 miles , 16 km
2021/09/23 09:35 KIGQ 230935Z AUTO 31010G14KT 10SM CLR 12/07 A2995 RMK AO2 T01230068
 
KGYY - Gary Regional, Indiana, USA
Distance from station: ESE 38mi, 62km
Updated: Thu, 23-Sep-2021 4:15am CDT
Clear
Clear
 Wind from WNW
Wind: WNW 13 mph , 20 km/h, Gust: 22 mph , 35 km/h
Temperature: 57°F , 14°C
Dew Point: 48°F , 9°C
Humidity: 72%
Barometer: 29.94 inHg , 1013.9 hPa
Clouds: Clear
Visibility: 10 miles , 16 km
2021/09/23 09:15 KGYY 230915Z AUTO 30011G19KT 10SM CLR 14/09 A2994 RMK AO2 T01370087
KUGN - Waukegan, Illinois, USA
Distance from station: NNE 45mi, 73km
Updated: Thu, 23-Sep-2021 3:55am CDT
Clear
Clear
 Wind from NNW
Wind: NNW 8 mph , 13 km/h, Gust: 20 mph , 31 km/h
Temperature: 54°F , 12°C
Dew Point: 43°F , 6°C
Humidity: 67%
Barometer: 29.97 inHg , 1014.9 hPa
Clouds: Clear
Visibility: 10 miles , 16 km
2021/09/23 08:55 KUGN 230855Z AUTO 33007G17KT 10SM CLR 12/06 A2997 RMK AO2 SLP146 T01170061 56015
 
KRPJ - Rochelle/Koritz, Illinois, USA
Distance from station: W 50mi, 80km
Updated: Thu, 23-Sep-2021 4:35am CDT
Clear
Clear
 Wind from NW
Wind: NW 5 mph , 7 km/h
Temperature: 46°F , 8°C
Wind Chill: 44°F , 7°C
Dew Point: 41°F , 5°C
Humidity: 82%
Barometer: 30.05 inHg , 1017.6 hPa
Clouds: Clear
Visibility: 10 miles , 16 km
2021/09/23 09:35 KRPJ 230935Z AUTO 32004KT 10SM CLR 08/05 A3005 RMK AO2 T00790052